LYTV/TIV METAR and TAF weather

Enter ICAO airport designator
Station Type Date Time Source
LYTV METAR 2019/08/24 20:00 UTC NOAA

LYTV 242000Z VRB01KT CAVOK 22/17 Q1014


Station Type Date Time Source
LYTV Decoded METAR 2019/08/24 20:00 UTC NOAA

Station name not available
Aug 24, 2019 - 04:00 PM EDT / 2019.08.24 2000 UTC
Wind: Variable at 1 MPH (1 KT):0
Visibility: greater than 7 mile(s):0
Temperature: 71 F (22 C)
Dew Point: 62 F (17 C)
Relative Humidity: 73%
Pressure (altimeter): 29.94 in. Hg (1014 hPa)
ob: LYTV 242000Z VRB01KT CAVOK 22/17 Q1014
cycle: 20

Station Type Date Time Source
LYTV TAF 2019/08/24 18:21 UTC NOAA

TAF LYTV 241700Z 2418/2518 02008KT CAVOK TX34/2513Z TN21/2503Z

Example: see airport list